Time;durP1;ratioP1;P1;durP2;ratioP2;P2;SDS_P1;SDS_P2;PMS_P1;PMS_P2;Temp;Humidity;BMP_temperature;BMP_pressure;BME280_temperature;BME280_humidity;BME280_pressure;Samples;Min_cycle;Max_cycle;Signal;HPM_P1;HPM_P2
2022/06/22 00:02:30;;;;;;;16.10;6.10;;;28.50;64.10;;;;;;5026540;28;20032;-61
2022/06/22 00:05:03;;;;;;;15.73;6.60;;;28.50;64.10;;;;;;4952342;28;20685;-61
2022/06/22 00:07:36;;;;;;;18.92;6.95;;;28.40;64.20;;;;;;5010757;28;20048;-61
2022/06/22 00:10:28;;;;;;;15.02;6.05;;;28.40;64.20;;;;;;5031805;28;20056;-62
2022/06/22 00:12:55;;;;;;;15.75;6.35;;;28.40;64.30;;;;;;5026375;28;20499;-61
2022/06/22 00:15:23;;;;;;;14.20;5.72;;;28.30;64.30;;;;;;5032899;28;20029;-61
2022/06/22 00:17:49;;;;;;;20.90;6.57;;;28.30;64.40;;;;;;5044705;28;20036;-61
2022/06/22 00:20:27;;;;;;;19.52;6.50;;;28.30;64.40;;;;;;5028783;28;20033;-61
2022/06/22 00:22:54;;;;;;;13.63;6.05;;;28.30;64.40;;;;;;5025078;28;20024;-62
2022/06/22 00:25:40;;;;;;;16.52;6.40;;;28.20;64.40;;;;;;5025425;28;20120;-61
2022/06/22 00:28:26;;;;;;;17.23;6.03;;;28.20;64.50;;;;;;5028602;28;20124;-61
2022/06/22 00:30:59;;;;;;;18.45;5.80;;;28.20;64.60;;;;;;5014733;28;20583;-61
2022/06/22 00:33:24;;;;;;;12.93;5.85;;;28.20;64.70;;;;;;5027185;28;20123;-61
2022/06/22 00:36:12;;;;;;;18.52;5.85;;;28.20;64.80;;;;;;5042476;28;20599;-61
2022/06/22 00:38:38;;;;;;;16.75;5.80;;;28.10;64.80;;;;;;5026417;28;20033;-61
2022/06/22 00:41:22;;;;;;;16.27;5.13;;;28.10;64.80;;;;;;5007382;28;20044;-61
2022/06/22 00:43:48;;;;;;;15.85;5.68;;;28.10;64.80;;;;;;5003000;28;20037;-61
2022/06/22 00:46:15;;;;;;;14.90;5.90;;;28.10;65.00;;;;;;5005681;28;20064;-61
2022/06/22 00:48:41;;;;;;;12.45;5.10;;;28.10;65.00;;;;;;5027113;28;20441;-61
2022/06/22 00:51:08;;;;;;;10.40;5.13;;;28.10;65.10;;;;;;5045590;28;20100;-62
2022/06/22 00:53:51;;;;;;;13.10;5.35;;;28.00;65.10;;;;;;5021968;28;20472;-60
2022/06/22 00:56:16;;;;;;;10.38;4.72;;;28.00;65.10;;;;;;5004383;28;20119;-61
2022/06/22 00:59:11;;;;;;;12.88;5.22;;;27.90;65.20;;;;;;5044573;28;20103;-61
2022/06/22 01:01:52;;;;;;;12.38;5.38;;;27.90;65.30;;;;;;5023025;28;20030;-61
2022/06/22 01:04:21;;;;;;;13.75;5.60;;;27.90;65.40;;;;;;5021006;28;20440;-61
2022/06/22 01:06:51;;;;;;;9.43;5.55;;;27.90;65.40;;;;;;5026451;28;20029;-60
2022/06/22 01:09:58;;;;;;;17.13;5.18;;;27.90;65.40;;;;;;5022984;28;20045;-61
2022/06/22 01:12:45;;;;;;;12.98;4.88;;;27.90;65.50;;;;;;4926294;29;20469;-61
2022/06/22 01:15:33;;;;;;;12.90;5.40;;;27.90;65.50;;;;;;5024731;28;20037;-61
2022/06/22 01:18:17;;;;;;;15.13;5.15;;;27.80;65.60;;;;;;5004099;28;21252;-61
2022/06/22 01:20:50;;;;;;;13.95;5.18;;;27.80;65.60;;;;;;5002695;28;20032;-61
2022/06/22 01:23:19;;;;;;;10.60;5.30;;;27.80;65.70;;;;;;5022773;28;20571;-61
2022/06/22 01:26:05;;;;;;;15.65;5.53;;;27.80;65.80;;;;;;5041016;28;20052;-61
2022/06/22 01:28:31;;;;;;;11.93;4.78;;;27.70;65.80;;;;;;5026440;28;20049;-61
2022/06/22 01:31:02;;;;;;;11.90;5.45;;;27.70;65.80;;;;;;5040396;28;20057;-61
2022/06/22 01:33:32;;;;;;;13.82;5.15;;;27.70;65.90;;;;;;5026013;28;20025;-61
2022/06/22 01:36:00;;;;;;;10.43;5.05;;;27.70;66.00;;;;;;5025436;28;20049;-61
2022/06/22 01:38:30;;;;;;;10.93;4.97;;;27.70;66.00;;;;;;5020333;28;20033;-61
2022/06/22 01:41:33;;;;;;;9.30;4.43;;;27.70;66.10;;;;;;4997530;28;20029;-61
2022/06/22 01:44:06;;;;;;;13.38;4.90;;;27.60;66.10;;;;;;5026625;28;20485;-62
2022/06/22 01:46:52;;;;;;;11.38;4.82;;;27.60;66.10;;;;;;5010972;28;20023;-61
2022/06/22 01:49:28;;;;;;;10.98;4.53;;;27.60;66.10;;;;;;5023729;28;20146;-61
2022/06/22 01:51:58;;;;;;;10.35;4.60;;;27.60;66.30;;;;;;5042626;28;20109;-61
2022/06/22 01:54:29;;;;;;;12.68;5.07;;;27.60;66.40;;;;;;5003579;28;20033;-61
2022/06/22 01:57:03;;;;;;;9.65;4.00;;;27.50;66.30;;;;;;5028337;28;20040;-61
2022/06/22 01:59:47;;;;;;;10.70;4.97;;;27.50;66.40;;;;;;5009006;28;20033;-61
2022/06/22 02:02:20;;;;;;;10.68;4.70;;;27.50;66.40;;;;;;5032961;28;20025;-61
2022/06/22 02:05:13;;;;;;;15.90;5.13;;;27.50;66.50;;;;;;5020235;28;20064;-62
2022/06/22 02:07:46;;;;;;;12.65;4.72;;;27.40;66.40;;;;;;5014087;28;20049;-61
2022/06/22 02:10:29;;;;;;;11.18;4.82;;;27.40;66.60;;;;;;5025580;28;20025;-62
2022/06/22 02:13:07;;;;;;;8.15;4.47;;;27.40;66.70;;;;;;5054340;28;20052;-60
2022/06/22 02:15:42;;;;;;;10.68;4.15;;;27.40;66.60;;;;;;5051993;28;20025;-61
2022/06/22 02:18:22;;;;;;;12.32;4.10;;;27.40;66.60;;;;;;5049289;28;20192;-61
2022/06/22 02:20:47;;;;;;;9.15;4.18;;;27.40;66.70;;;;;;5022714;28;20024;-61
2022/06/22 02:23:28;;;;;;;10.02;4.53;;;27.40;66.80;;;;;;5031036;28;20033;-61
2022/06/22 02:26:12;;;;;;;10.25;4.57;;;27.40;66.70;;;;;;5019078;28;20017;-62
2022/06/22 02:28:38;;;;;;;10.18;4.18;;;27.30;66.70;;;;;;5024134;28;20037;-61
2022/06/22 02:31:03;;;;;;;13.77;4.65;;;27.30;66.80;;;;;;5045783;28;20561;-61
2022/06/22 02:33:30;;;;;;;9.55;3.90;;;27.30;66.90;;;;;;5030113;28;20055;-63
2022/06/22 02:35:56;;;;;;;8.70;4.50;;;27.30;66.90;;;;;;5029697;28;20049;-64
2022/06/22 02:38:21;;;;;;;10.63;5.03;;;27.20;66.90;;;;;;5007375;28;20116;-64
2022/06/22 02:46:19;;;;;;;8.55;4.18;;;27.20;67.00;;;;;;5018125;28;20072;-61
2022/06/22 02:48:46;;;;;;;12.05;4.35;;;27.20;67.00;;;;;;4997680;28;20100;-62
2022/06/22 02:51:24;;;;;;;6.57;4.32;;;27.20;67.10;;;;;;5031601;28;20021;-62
2022/06/22 02:53:49;;;;;;;7.53;3.88;;;27.20;67.10;;;;;;5029487;28;20362;-62
2022/06/22 02:56:20;;;;;;;7.10;4.57;;;27.10;67.10;;;;;;5008832;28;20023;-62
2022/06/22 02:58:46;;;;;;;13.82;4.25;;;27.10;67.20;;;;;;5023077;28;20499;-61
2022/06/22 03:01:16;;;;;;;8.02;4.25;;;27.10;67.40;;;;;;5027566;28;20021;-61
2022/06/22 03:03:49;;;;;;;7.75;4.53;;;27.10;67.50;;;;;;5031194;28;20070;-62
2022/06/22 03:06:14;;;;;;;11.27;4.22;;;27.10;67.50;;;;;;5010682;28;20096;-62
2022/06/22 03:08:40;;;;;;;12.98;5.07;;;27.10;67.60;;;;;;5025470;28;20143;-62
2022/06/22 03:11:07;;;;;;;13.38;5.22;;;27.00;67.60;;;;;;5027966;28;21256;-62
2022/06/22 03:13:38;;;;;;;10.27;4.72;;;27.00;67.70;;;;;;5030738;28;20045;-62
2022/06/22 03:16:04;;;;;;;15.38;5.13;;;27.00;67.60;;;;;;5046912;28;20112;-62
2022/06/22 03:18:30;;;;;;;14.30;5.18;;;27.00;67.70;;;;;;5012397;28;20112;-62
2022/06/22 03:21:02;;;;;;;9.85;5.30;;;27.00;67.90;;;;;;5019496;28;20017;-61
2022/06/22 03:23:49;;;;;;;8.55;4.78;;;27.00;68.10;;;;;;5014115;28;20082;-60
2022/06/22 03:26:21;;;;;;;20.45;6.00;;;26.90;68.10;;;;;;5042505;28;20051;-61
2022/06/22 03:29:22;;;;;;;8.10;4.55;;;26.90;68.20;;;;;;5005522;28;20021;-62
2022/06/22 03:31:50;;;;;;;8.57;4.88;;;26.90;68.50;;;;;;5012491;28;20029;-62
2022/06/22 03:34:26;;;;;;;12.80;5.00;;;26.80;68.30;;;;;;5009196;28;20029;-62
2022/06/22 03:37:13;;;;;;;10.90;4.70;;;26.80;68.40;;;;;;5022882;28;20362;-62
2022/06/22 03:39:42;;;;;;;10.45;5.10;;;26.80;68.50;;;;;;5000609;28;20036;-62
2022/06/22 03:42:24;;;;;;;12.00;4.90;;;26.80;68.60;;;;;;5024038;28;20021;-60
2022/06/22 03:44:56;;;;;;;9.40;4.85;;;26.80;68.60;;;;;;5017242;28;20040;-61
2022/06/22 03:47:52;;;;;;;12.02;5.00;;;26.80;68.70;;;;;;5010420;28;20120;-61
2022/06/22 03:50:59;;;;;;;10.38;5.07;;;26.70;68.60;;;;;;5013799;28;20546;-62
2022/06/22 03:53:45;;;;;;;10.05;5.20;;;26.70;68.70;;;;;;4989799;28;20041;-62
2022/06/22 03:56:12;;;;;;;;;;;26.70;68.70;;;;;;5024057;28;20025;-62
2022/06/22 03:58:38;;;;;;;7.80;4.47;;;26.70;68.70;;;;;;5018392;28;19971;-62
2022/06/22 04:01:04;;;;;;;10.43;4.53;;;26.60;68.80;;;;;;5037340;28;20089;-61
2022/06/22 04:03:29;;;;;;;8.43;4.68;;;26.70;69.70;;;;;;5006657;28;20037;-62
2022/06/22 04:05:58;;;;;;;16.63;5.85;;;26.60;68.90;;;;;;5031023;28;20671;-62
2022/06/22 04:08:32;;;;;;;10.25;5.07;;;26.60;69.10;;;;;;5026277;28;20389;-61
2022/06/22 04:11:04;;;;;;;11.27;5.20;;;26.60;69.10;;;;;;5018198;28;20075;-62
2022/06/22 04:13:50;;;;;;;11.65;4.63;;;26.60;69.10;;;;;;5006005;28;20114;-61
2022/06/22 04:16:17;;;;;;;;;;;26.60;69.30;;;;;;5000022;28;20128;-62
2022/06/22 04:18:49;;;;;;;12.15;4.57;;;26.60;69.40;;;;;;5027233;28;20200;-61
2022/06/22 04:21:22;;;;;;;13.82;4.90;;;26.50;69.50;;;;;;5026017;28;20124;-62
2022/06/22 04:23:51;;;;;;;10.52;4.88;;;26.50;69.50;;;;;;5004775;28;20017;-61
2022/06/22 04:26:32;;;;;;;17.17;5.05;;;26.50;69.60;;;;;;5022298;28;20512;-61
2022/06/22 04:29:05;;;;;;;32.63;6.35;;;26.50;69.80;;;;;;4992201;28;20037;-62
2022/06/22 04:31:35;;;;;;;27.55;5.97;;;26.50;69.80;;;;;;5019800;28;20065;-62
2022/06/22 04:34:26;;;;;;;44.10;8.60;;;26.50;69.90;;;;;;5005653;28;20404;-61
2022/06/22 04:36:54;;;;;;;37.70;6.60;;;26.40;70.10;;;;;;5026008;28;20201;-61
2022/06/22 04:39:23;;;;;;;41.60;6.93;;;26.40;70.10;;;;;;5008691;28;20027;-61
2022/06/22 04:41:49;;;;;;;25.67;6.57;;;26.30;70.20;;;;;;5025055;28;20041;-61
2022/06/22 04:44:18;;;;;;;39.00;7.32;;;26.30;70.20;;;;;;5011161;28;20103;-61
2022/06/22 04:46:45;;;;;;;32.97;7.05;;;26.40;70.30;;;;;;5025051;28;20025;-61
2022/06/22 04:49:34;;;;;;;23.13;7.05;;;26.30;70.20;;;;;;5003771;28;20064;-61
2022/06/22 04:52:18;;;;;;;29.00;6.50;;;26.30;70.30;;;;;;5025140;28;20159;-62
2022/06/22 04:54:44;;;;;;;28.58;5.65;;;26.30;70.50;;;;;;5046970;28;20531;-61
2022/06/22 04:57:17;;;;;;;30.10;7.03;;;26.30;70.50;;;;;;4994432;28;20037;-61
2022/06/22 04:59:42;;;;;;;29.13;6.38;;;26.30;70.60;;;;;;5007893;28;20037;-62
2022/06/22 05:02:10;;;;;;;13.02;5.07;;;26.30;70.70;;;;;;5027601;28;20050;-62
2022/06/22 05:04:38;;;;;;;22.48;6.00;;;26.30;70.80;;;;;;5006692;28;20052;-61
2022/06/22 05:07:42;;;;;;;28.27;5.80;;;26.20;70.70;;;;;;5020882;28;20440;-62
2022/06/22 05:10:42;;;;;;;21.60;5.63;;;26.20;70.90;;;;;;5025267;28;20151;-62
2022/06/22 05:13:15;;;;;;;19.17;5.93;;;26.30;70.80;;;;;;5022016;28;20036;-62
2022/06/22 05:15:41;;;;;;;20.08;5.80;;;26.20;70.90;;;;;;5038382;28;20135;-62
2022/06/22 05:18:18;;;;;;;21.58;5.93;;;26.30;70.90;;;;;;5026619;28;20112;-62
2022/06/22 05:20:51;;;;;;;16.90;5.40;;;26.20;70.80;;;;;;4998259;28;20032;-62
2022/06/22 05:23:18;;;;;;;18.58;5.68;;;26.20;70.80;;;;;;5039087;28;20146;-61
2022/06/22 05:25:44;;;;;;;19.17;5.75;;;26.20;70.70;;;;;;5012990;28;20031;-61
2022/06/22 05:28:13;;;;;;;22.10;5.55;;;26.20;70.70;;;;;;5007165;28;20025;-61
2022/06/22 05:30:48;;;;;;;23.80;5.78;;;26.20;70.80;;;;;;5045860;28;20143;-62
2022/06/22 05:33:15;;;;;;;19.95;6.03;;;26.20;71.10;;;;;;4991865;28;20083;-61
2022/06/22 05:35:49;;;;;;;26.85;6.00;;;26.20;71.30;;;;;;5022738;28;20124;-61
2022/06/22 05:38:15;;;;;;;15.13;5.93;;;26.20;71.70;;;;;;5022913;28;20106;-61
2022/06/22 05:40:40;;;;;;;18.65;5.82;;;26.10;71.80;;;;;;5023361;28;20057;-61
2022/06/22 05:43:06;;;;;;;18.35;5.93;;;26.20;72.00;;;;;;5017655;28;20055;-61
2022/06/22 05:45:36;;;;;;;17.95;6.03;;;26.10;71.90;;;;;;5005874;28;20045;-61
2022/06/22 05:48:02;;;;;;;19.15;6.45;;;26.10;71.80;;;;;;5014006;28;20033;-61
2022/06/22 05:50:41;;;;;;;15.43;5.00;;;26.10;71.70;;;;;;5025380;28;20087;-61
2022/06/22 05:53:19;;;;;;;19.63;5.90;;;26.10;71.70;;;;;;5011064;28;20039;-61
2022/06/22 05:55:55;;;;;;;20.17;5.93;;;26.10;71.80;;;;;;5025158;28;20099;-61
2022/06/22 05:58:34;;;;;;;21.60;6.28;;;26.10;72.00;;;;;;5024338;28;20049;-61
2022/06/22 06:01:00;;;;;;;15.57;5.75;;;26.10;72.10;;;;;;5037995;28;20092;-61
2022/06/22 06:03:39;;;;;;;13.35;5.68;;;26.10;72.30;;;;;;5044846;28;20405;-61
2022/06/22 06:06:16;;;;;;;20.90;5.72;;;26.10;72.40;;;;;;5026810;28;20045;-61
2022/06/22 06:08:46;;;;;;;15.50;5.60;;;26.10;72.60;;;;;;5022197;28;20025;-62
2022/06/22 06:11:18;;;;;;;16.38;5.00;;;26.10;72.50;;;;;;5022720;28;20025;-61
2022/06/22 06:13:52;;;;;;;13.77;5.15;;;26.10;72.50;;;;;;5025008;28;20041;-61
2022/06/22 06:16:23;;;;;;;43.38;9.20;;;26.10;72.80;;;;;;5005133;28;20130;-61
2022/06/22 06:18:49;;;;;;;33.50;7.10;;;26.10;73.30;;;;;;5000227;28;20029;-61
2022/06/22 06:21:17;;;;;;;37.53;8.00;;;26.10;73.20;;;;;;5026090;28;20021;-61
2022/06/22 06:23:52;;;;;;;29.83;6.43;;;26.10;73.50;;;;;;5022670;28;20048;-61
2022/06/22 06:29:20;;;;;;;27.65;5.80;;;26.10;73.80;;;;;;5023617;28;20264;-61
2022/06/22 06:32:04;;;;;;;200.82;22.23;;;26.10;73.50;;;;;;4996189;28;20025;-61
2022/06/22 06:34:43;;;;;;;49.92;8.68;;;26.10;73.60;;;;;;5009998;28;20029;-61
2022/06/22 06:37:13;;;;;;;45.03;7.53;;;26.10;73.60;;;;;;5006891;28;20039;-61
2022/06/22 06:39:44;;;;;;;40.70;7.57;;;26.10;74.70;;;;;;5042078;28;20037;-61
2022/06/22 06:42:38;;;;;;;42.17;8.18;;;26.10;74.50;;;;;;5006529;28;20239;-61
2022/06/22 06:45:05;;;;;;;52.92;8.68;;;26.10;74.30;;;;;;4992094;28;20041;-61
2022/06/22 06:47:34;;;;;;;33.25;7.05;;;26.10;74.90;;;;;;5027896;28;20025;-61
2022/06/22 06:50:08;;;;;;;40.50;7.05;;;26.20;74.60;;;;;;5029688;28;20454;-61
2022/06/22 06:52:43;;;;;;;43.15;8.02;;;26.20;74.70;;;;;;5009784;28;20043;-61
2022/06/22 06:55:13;;;;;;;50.53;8.30;;;26.20;74.90;;;;;;5046147;28;20060;-61
2022/06/22 06:57:53;;;;;;;42.80;8.05;;;26.20;74.70;;;;;;5010738;28;20370;-61
2022/06/22 07:00:19;;;;;;;47.33;8.63;;;26.20;74.70;;;;;;5025928;28;20032;-61
2022/06/22 07:02:44;;;;;;;40.85;7.93;;;26.20;74.80;;;;;;5040910;28;20033;-61
2022/06/22 07:05:13;;;;;;;47.97;8.75;;;26.20;74.60;;;;;;5047176;28;20520;-61
2022/06/22 07:07:45;;;;;;;63.40;10.25;;;26.20;74.80;;;;;;5030564;28;20091;-61
2022/06/22 07:10:16;;;;;;;78.28;10.48;;;26.30;75.20;;;;;;5012393;28;20048;-61
2022/06/22 07:13:13;;;;;;;48.53;8.43;;;26.20;75.40;;;;;;5031145;28;20582;-61
2022/06/22 07:15:40;;;;;;;35.47;8.25;;;26.20;75.30;;;;;;5019069;28;20055;-61
2022/06/22 07:18:22;;;;;;;48.03;8.60;;;26.20;75.40;;;;;;5004979;28;20035;-60
2022/06/22 07:20:51;;;;;;;43.88;8.45;;;26.10;75.40;;;;;;5010678;28;20496;-61
2022/06/22 07:23:31;;;;;;;44.65;9.38;;;26.10;74.90;;;;;;5018998;28;20071;-61
2022/06/22 07:26:00;;;;;;;70.15;10.23;;;26.10;75.50;;;;;;5026718;28;20021;-61
2022/06/22 07:28:41;;;;;;;50.63;9.40;;;26.10;76.00;;;;;;5017662;28;20055;-61
2022/06/22 07:31:28;;;;;;;48.00;9.10;;;26.10;75.60;;;;;;5024627;28;20030;-61
2022/06/22 07:34:00;;;;;;;43.20;7.68;;;26.10;75.70;;;;;;5023241;28;20044;-62
2022/06/22 07:36:39;;;;;;;44.95;7.68;;;26.10;75.80;;;;;;5018601;28;20037;-62
2022/06/22 07:39:06;;;;;;;50.00;8.48;;;26.10;75.50;;;;;;4992956;28;20041;-62
2022/06/22 07:41:31;;;;;;;54.95;7.88;;;26.10;75.70;;;;;;5004573;28;20045;-61
2022/06/22 07:43:59;;;;;;;39.38;8.68;;;26.10;76.10;;;;;;5015926;28;20085;-61
2022/06/22 07:46:29;;;;;;;44.47;8.88;;;26.10;76.10;;;;;;5005506;28;20112;-61
2022/06/22 07:49:18;;;;;;;45.50;8.93;;;26.10;76.00;;;;;;5017595;28;20025;-62
2022/06/22 07:51:50;;;;;;;40.47;8.50;;;26.10;76.40;;;;;;5002080;28;20494;-62
2022/06/22 07:54:27;;;;;;;40.40;8.48;;;26.10;76.60;;;;;;5009120;28;20064;-62
2022/06/22 07:57:16;;;;;;;48.17;8.95;;;26.10;77.50;;;;;;5023583;28;20562;-62
2022/06/22 07:59:53;;;;;;;48.45;9.10;;;26.10;78.30;;;;;;4996469;28;20041;-62
2022/06/22 08:02:21;;;;;;;44.28;7.43;;;26.10;78.70;;;;;;5034595;28;20473;-61
2022/06/22 08:05:02;;;;;;;52.72;8.98;;;26.00;78.40;;;;;;5018881;28;20060;-61
2022/06/22 08:07:39;;;;;;;52.78;8.50;;;26.00;78.30;;;;;;5010515;28;20087;-61
2022/06/22 08:10:10;;;;;;;118.38;11.98;;;26.00;78.70;;;;;;5015895;28;20052;-61
2022/06/22 08:12:56;;;;;;;66.90;11.00;;;26.00;79.70;;;;;;5025306;28;20043;-61
2022/06/22 08:15:22;;;;;;;65.75;9.50;;;25.90;80.00;;;;;;5025173;28;20520;-61
2022/06/22 08:17:50;;;;;;;77.50;9.93;;;25.90;80.20;;;;;;5007161;28;20029;-61
2022/06/22 08:20:20;;;;;;;82.15;10.85;;;25.90;81.10;;;;;;5022157;28;20221;-61
2022/06/22 08:22:46;;;;;;;74.38;10.88;;;25.90;80.40;;;;;;5002694;28;20108;-61
2022/06/22 08:25:13;;;;;;;57.35;10.40;;;25.90;80.40;;;;;;5009303;28;20158;-61
2022/06/22 08:27:39;;;;;;;63.00;10.15;;;25.90;80.00;;;;;;5002249;28;20138;-61
2022/06/22 08:30:06;;;;;;;56.42;9.38;;;25.90;79.90;;;;;;5018737;28;20052;-63
2022/06/22 08:32:38;;;;;;;55.42;9.48;;;25.90;80.00;;;;;;5020781;28;20028;-61
2022/06/22 08:35:22;;;;;;;57.55;9.40;;;25.90;80.10;;;;;;5001202;28;20032;-61
2022/06/22 08:38:01;;;;;;;44.50;8.73;;;25.80;80.60;;;;;;5003347;28;20037;-61
2022/06/22 08:40:56;;;;;;;48.78;8.77;;;25.90;80.80;;;;;;5008436;28;20030;-61
2022/06/22 08:43:38;;;;;;;50.22;8.02;;;25.90;80.80;;;;;;5027960;28;20172;-61
2022/06/22 08:46:29;;;;;;;47.40;8.70;;;25.80;81.20;;;;;;5021548;28;20026;-61
2022/06/22 08:49:10;;;;;;;35.42;7.40;;;25.80;81.60;;;;;;5014580;28;20088;-61
2022/06/22 08:51:46;;;;;;;129.27;16.67;;;25.80;81.80;;;;;;5018703;28;20033;-61
2022/06/22 08:54:27;;;;;;;109.20;13.73;;;25.80;81.90;;;;;;5015673;28;20152;-61
2022/06/22 08:57:30;;;;;;;71.15;10.68;;;25.80;82.00;;;;;;5014598;28;20025;-61
2022/06/22 09:00:03;;;;;;;55.80;9.07;;;25.80;82.00;;;;;;5023504;28;20034;-61
2022/06/22 09:03:04;;;;;;;59.75;9.35;;;25.80;82.50;;;;;;5013547;28;20429;-62
2022/06/22 09:05:47;;;;;;;56.30;9.02;;;25.80;82.70;;;;;;5012502;28;20170;-61
2022/06/22 09:08:39;;;;;;;63.45;9.68;;;25.80;83.00;;;;;;5015427;28;20216;-61
2022/06/22 09:11:15;;;;;;;70.18;9.32;;;25.80;83.20;;;;;;5012731;28;20190;-61
2022/06/22 09:13:46;;;;;;;63.33;9.52;;;25.70;83.40;;;;;;5016812;28;20059;-61
2022/06/22 09:16:40;;;;;;;172.27;19.90;;;25.80;83.50;;;;;;5016783;28;20041;-61
2022/06/22 09:19:08;;;;;;;54.35;9.02;;;25.70;83.60;;;;;;5014783;28;20374;-61
2022/06/22 09:21:58;;;;;;;46.58;8.82;;;25.70;83.50;;;;;;5014190;28;20042;-61
2022/06/22 09:24:52;;;;;;;40.50;9.20;;;25.70;83.20;;;;;;4999798;28;20050;-61
2022/06/22 09:27:19;;;;;;;34.97;9.25;;;25.70;82.80;;;;;;5019184;28;20216;-61
2022/06/22 09:29:56;;;;;;;53.85;8.93;;;25.70;82.40;;;;;;5012142;28;20108;-61
2022/06/22 09:32:36;;;;;;;39.17;8.15;;;25.70;82.30;;;;;;5015632;28;20030;-61
2022/06/22 09:35:52;;;;;;;58.53;9.85;;;25.70;83.10;;;;;;4984006;28;20524;-61
2022/06/22 09:38:38;;;;;;;55.55;8.45;;;25.70;82.30;;;;;;4979044;28;20095;-61
2022/06/22 09:41:14;;;;;;;69.47;9.20;;;25.80;82.00;;;;;;4995922;28;20022;-61
2022/06/22 09:43:44;;;;;;;55.00;9.05;;;25.70;81.50;;;;;;5006241;28;20042;-61
2022/06/22 09:46:22;;;;;;;45.60;8.27;;;25.80;81.20;;;;;;4988314;28;20107;-61
2022/06/22 09:48:59;;;;;;;50.10;8.65;;;25.80;81.00;;;;;;5007738;28;20880;-61
2022/06/22 09:51:31;;;;;;;52.45;8.85;;;25.80;80.90;;;;;;4988806;28;20014;-61
2022/06/22 09:57:30;;;;;;;39.85;7.43;;;25.80;80.70;;;;;;4992678;28;20115;-61
2022/06/22 10:00:20;;;;;;;37.63;7.88;;;25.80;80.40;;;;;;4984988;28;20042;-61
2022/06/22 10:03:20;;;;;;;46.63;8.70;;;25.80;80.10;;;;;;4976083;28;20169;-61
2022/06/22 10:06:33;;;;;;;36.78;6.97;;;25.80;80.30;;;;;;4909389;28;20046;-61
2022/06/22 10:09:10;;;;;;;104.47;11.32;;;25.80;80.30;;;;;;4946446;28;20296;-62
2022/06/22 10:12:02;;;;;;;66.35;10.23;;;25.80;80.60;;;;;;5003135;28;20030;-61
2022/06/22 10:15:09;;;;;;;49.80;8.95;;;25.80;80.90;;;;;;4987453;28;20042;-61
2022/06/22 10:17:55;;;;;;;62.97;9.48;;;25.80;80.80;;;;;;4987774;28;20845;-61
2022/06/22 10:20:36;;;;;;;64.00;10.32;;;25.80;81.30;;;;;;4987115;28;20068;-61
2022/06/22 10:23:05;;;;;;;59.55;9.23;;;25.80;81.30;;;;;;4988108;28;20105;-61
2022/06/22 10:25:33;;;;;;;42.42;8.32;;;25.80;81.50;;;;;;4984167;28;20060;-61
2022/06/22 10:28:22;;;;;;;66.75;9.80;;;25.80;82.00;;;;;;4986750;28;20025;-61
2022/06/22 10:31:09;;;;;;;42.10;7.97;;;25.90;82.40;;;;;;4996525;28;20048;-61
2022/06/22 10:34:12;;;;;;;65.57;9.77;;;25.90;81.60;;;;;;5007323;28;20034;-61
2022/06/22 10:37:01;;;;;;;85.47;10.70;;;25.90;81.80;;;;;;5013946;28;20041;-61
2022/06/22 10:39:41;;;;;;;46.25;8.93;;;25.90;81.90;;;;;;5021600;28;20052;-61
2022/06/22 10:45:40;;;;;;;39.63;7.93;;;26.00;81.60;;;;;;5040768;28;20036;-61
2022/06/22 10:48:35;;;;;;;47.47;8.10;;;26.00;81.90;;;;;;5018318;28;20032;-61
2022/06/22 10:51:12;;;;;;;49.47;9.52;;;26.00;82.20;;;;;;5008019;28;20060;-61
2022/06/22 10:53:55;;;;;;;38.72;7.63;;;25.90;82.90;;;;;;5000377;28;20124;-61
2022/06/22 10:56:26;;;;;;;39.70;8.02;;;25.90;82.90;;;;;;5034084;28;21835;-61
2022/06/22 10:59:00;;;;;;;35.70;8.07;;;26.00;82.50;;;;;;5013084;28;20033;-62
2022/06/22 11:01:33;;;;;;;33.87;7.40;;;26.00;82.50;;;;;;5032220;28;20689;-61
2022/06/22 11:04:18;;;;;;;34.38;7.57;;;26.10;83.00;;;;;;5013054;28;20036;-61
2022/06/22 11:07:11;;;;;;;56.08;8.65;;;26.10;82.60;;;;;;5035498;28;20029;-60
2022/06/22 11:09:49;;;;;;;27.70;6.65;;;26.10;82.70;;;;;;5014322;28;20330;-61
2022/06/22 11:12:27;;;;;;;34.08;7.30;;;26.10;82.90;;;;;;5001672;28;20056;-61
2022/06/22 11:15:32;;;;;;;31.38;6.32;;;26.20;82.80;;;;;;5014782;28;20024;-62
2022/06/22 11:18:10;;;;;;;38.67;7.55;;;26.30;82.40;;;;;;5031529;28;20025;-61
2022/06/22 11:20:45;;;;;;;34.20;7.10;;;26.40;82.60;;;;;;5019416;28;20031;-62
2022/06/22 11:23:54;;;;;;;34.47;7.35;;;26.50;82.70;;;;;;5002815;28;20231;-61
2022/06/22 11:32:51;;;;;;;31.48;7.20;;;26.60;81.90;;;;;;5030172;28;20071;-62
2022/06/22 11:35:31;;;;;;;52.83;9.10;;;26.60;81.80;;;;;;5025412;28;20081;-64
2022/06/22 11:38:37;;;;;;;44.50;8.63;;;26.60;81.60;;;;;;5026841;28;20044;-62
2022/06/22 11:41:30;;;;;;;25.92;7.50;;;26.60;81.60;;;;;;5019503;28;20029;-62
2022/06/22 11:44:06;;;;;;;40.72;8.30;;;26.60;81.60;;;;;;5033499;28;20056;-62
2022/06/22 11:46:36;;;;;;;38.15;7.13;;;26.60;81.80;;;;;;5019232;28;20199;-62
2022/06/22 11:49:20;;;;;;;38.80;8.15;;;26.60;81.60;;;;;;4996511;28;20128;-62
2022/06/22 11:52:00;;;;;;;35.40;8.75;;;26.60;81.60;;;;;;5027631;28;20032;-62
2022/06/22 11:55:04;;;;;;;38.00;7.40;;;26.60;81.50;;;;;;5017619;28;20060;-62
2022/06/22 11:57:50;;;;;;;30.70;8.18;;;26.60;81.60;;;;;;5014227;28;20037;-62
2022/06/22 12:00:39;;;;;;;44.72;8.52;;;26.60;81.60;;;;;;5018034;28;20095;-62
2022/06/22 12:03:30;;;;;;;33.47;7.90;;;26.60;81.60;;;;;;5019208;28;20087;-61
2022/06/22 12:05:58;;;;;;;34.75;6.85;;;26.60;81.40;;;;;;5033111;28;20026;-62
2022/06/22 12:08:34;;;;;;;33.40;7.57;;;26.70;81.60;;;;;;5031559;28;20473;-62
2022/06/22 12:11:00;;;;;;;43.08;7.82;;;26.70;81.20;;;;;;5000538;28;20259;-62
2022/06/22 12:17:06;;;;;;;42.25;8.20;;;26.90;81.30;;;;;;5029110;28;20575;-62
2022/06/22 12:19:36;;;;;;;43.17;9.80;;;27.00;81.50;;;;;;5033453;28;20029;-62
2022/06/22 12:22:16;;;;;;;54.92;9.90;;;27.10;81.30;;;;;;5019826;28;20033;-61
2022/06/22 12:24:50;;;;;;;65.78;10.43;;;27.20;81.70;;;;;;5006722;28;20504;-62
2022/06/22 12:27:46;;;;;;;64.20;9.25;;;27.30;82.40;;;;;;5040180;28;20082;-62
2022/06/22 12:30:54;;;;;;;50.17;9.55;;;27.30;81.90;;;;;;5026228;28;20468;-62
2022/06/22 12:33:27;;;;;;;53.95;9.27;;;27.40;81.90;;;;;;5023586;28;20119;-62
2022/06/22 12:36:19;;;;;;;53.38;9.93;;;27.50;81.80;;;;;;5009095;28;20266;-62
2022/06/22 12:38:47;;;;;;;54.88;10.15;;;27.60;81.60;;;;;;5034723;28;20029;-62
2022/06/22 12:41:24;;;;;;;52.17;9.15;;;27.70;82.00;;;;;;5005051;28;20024;-63
2022/06/22 12:44:11;;;;;;;54.83;11.45;;;27.80;81.50;;;;;;5028684;28;20043;-62
2022/06/22 12:47:05;;;;;;;61.58;11.10;;;27.80;81.40;;;;;;5002217;28;20115;-62
2022/06/22 12:49:34;;;;;;;64.38;9.52;;;27.90;81.10;;;;;;5014482;28;20063;-62
2022/06/22 12:52:11;;;;;;;58.00;10.15;;;28.00;80.80;;;;;;4999827;28;20029;-62
2022/06/22 12:54:40;;;;;;;60.90;10.13;;;28.10;80.80;;;;;;5003619;28;20028;-62
2022/06/22 12:57:51;;;;;;;64.07;10.80;;;28.20;80.70;;;;;;5018153;28;20491;-62
2022/06/22 13:00:18;;;;;;;66.60;11.23;;;28.10;81.10;;;;;;4975869;28;20371;-62
2022/06/22 13:02:44;;;;;;;56.97;9.98;;;28.20;80.30;;;;;;5011071;28;20099;-62
2022/06/22 13:05:12;;;;;;;64.70;11.05;;;28.30;79.90;;;;;;5003272;28;20033;-62
2022/06/22 13:07:51;;;;;;;93.13;14.77;;;28.30;79.60;;;;;;5031329;28;21287;-62
2022/06/22 13:10:19;;;;;;;114.13;14.68;;;28.40;79.40;;;;;;5003855;28;20136;-63
2022/06/22 13:13:09;;;;;;;93.20;14.40;;;28.50;79.30;;;;;;4990358;28;20074;-62
2022/06/22 13:16:00;;;;;;;107.95;16.40;;;28.50;79.00;;;;;;5015326;28;20029;-62
2022/06/22 13:18:38;;;;;;;100.50;14.02;;;28.60;78.70;;;;;;5001324;28;20071;-62
2022/06/22 13:21:31;;;;;;;97.30;13.63;;;28.70;78.40;;;;;;5009987;28;20044;-63
2022/06/22 13:24:12;;;;;;;66.03;10.88;;;28.80;77.50;;;;;;5017912;28;20347;-63
2022/06/22 13:26:46;;;;;;;51.00;9.90;;;28.80;76.90;;;;;;5007810;28;20025;-62
2022/06/22 13:29:21;;;;;;;54.92;8.95;;;28.70;76.30;;;;;;5012615;28;20508;-63
2022/06/22 13:31:48;;;;;;;60.30;10.07;;;28.70;75.30;;;;;;5019010;28;20028;-62
2022/06/22 13:34:21;;;;;;;64.53;10.85;;;28.60;75.60;;;;;;4996768;28;20060;-63
2022/06/22 13:36:55;;;;;;;60.90;9.35;;;28.50;75.40;;;;;;4989830;28;20049;-62
2022/06/22 13:39:55;;;;;;;50.00;9.02;;;28.40;74.90;;;;;;4980936;28;20496;-62
2022/06/22 13:42:27;;;;;;;36.58;8.20;;;28.50;74.80;;;;;;5023526;28;20477;-62
2022/06/22 13:45:17;;;;;;;42.40;7.65;;;28.40;74.80;;;;;;5025734;28;20033;-63
2022/06/22 13:47:53;;;;;;;56.33;9.40;;;28.40;75.20;;;;;;5027384;28;20182;-62
2022/06/22 13:50:24;;;;;;;42.65;8.02;;;28.40;75.40;;;;;;5012345;28;20071;-63
2022/06/22 13:52:53;;;;;;;39.10;6.75;;;28.40;75.20;;;;;;5012708;28;22245;-62